Time;durP1;ratioP1;P1;durP2;ratioP2;P2;SDS_P1;SDS_P2;PMS_P1;PMS_P2;Temp;Humidity;BMP_temperature;BMP_pressure;BME280_temperature;BME280_humidity;BME280_pressure;Samples;Min_cycle;Max_cycle;Signal;HPM_P1;HPM_P2
2023/05/15 00:00:36;;;;;;;10.15;9.05;;;17.00;94.30;;;;;;5006088;28;20042;-48
2023/05/15 00:03:23;;;;;;;11.07;9.25;;;17.00;95.00;;;;;;4993899;28;20022;-47
2023/05/15 00:06:09;;;;;;;10.77;9.48;;;17.00;94.80;;;;;;4992867;28;20054;-49
2023/05/15 00:08:55;;;;;;;10.07;9.18;;;16.80;95.60;;;;;;4992485;28;20038;-50
2023/05/15 00:11:41;;;;;;;10.95;9.88;;;16.80;95.70;;;;;;4991697;28;20023;-50
2023/05/15 00:14:27;;;;;;;10.90;9.48;;;16.80;95.60;;;;;;4990683;28;20058;-49
2023/05/15 00:17:12;;;;;;;10.75;9.75;;;16.70;95.90;;;;;;5004373;28;20028;-49
2023/05/15 00:19:59;;;;;;;10.70;9.60;;;16.60;96.20;;;;;;5010921;28;20034;-49
2023/05/15 00:22:45;;;;;;;10.07;9.18;;;16.50;96.70;;;;;;5004943;28;20029;-49
2023/05/15 00:25:31;;;;;;;10.52;9.10;;;16.50;96.80;;;;;;5005128;28;20022;-48
2023/05/15 00:28:17;;;;;;;10.93;9.82;;;16.60;96.70;;;;;;5011720;28;20054;-48
2023/05/15 00:31:03;;;;;;;10.75;9.68;;;16.60;96.60;;;;;;5011766;28;20176;-49
2023/05/15 00:33:49;;;;;;;10.50;9.50;;;16.60;96.90;;;;;;5011814;28;20495;-46
2023/05/15 00:36:35;;;;;;;10.98;9.98;;;16.60;96.60;;;;;;5011554;28;20407;-47
2023/05/15 00:39:21;;;;;;;10.93;9.85;;;16.50;96.70;;;;;;5010984;28;20148;-49
2023/05/15 00:42:08;;;;;;;17.42;14.48;;;16.50;96.60;;;;;;5012005;28;20018;-46
2023/05/15 00:44:55;;;;;;;17.55;12.38;;;16.40;96.90;;;;;;5011910;28;20454;-47
2023/05/15 00:47:42;;;;;;;12.05;10.75;;;16.30;97.00;;;;;;5010782;28;20037;-46
2023/05/15 00:50:29;;;;;;;12.13;10.82;;;16.20;97.20;;;;;;5011437;28;20034;-46
2023/05/15 00:53:16;;;;;;;10.57;9.40;;;16.20;97.20;;;;;;5012339;28;20235;-47
2023/05/15 00:56:04;;;;;;;10.77;9.68;;;16.20;97.10;;;;;;5011506;28;20038;-46
2023/05/15 00:58:52;;;;;;;11.00;9.88;;;16.20;97.40;;;;;;5011423;28;20088;-46
2023/05/15 01:01:38;;;;;;;10.95;9.65;;;16.20;97.70;;;;;;4992866;28;20061;-47
2023/05/15 01:04:24;;;;;;;10.73;9.68;;;16.40;97.90;;;;;;4992906;28;20085;-46
2023/05/15 01:07:11;;;;;;;11.00;9.93;;;16.50;97.70;;;;;;4990922;28;20054;-46
2023/05/15 01:09:58;;;;;;;10.85;9.70;;;16.50;97.20;;;;;;5000006;28;20076;-47
2023/05/15 01:12:46;;;;;;;11.40;10.38;;;16.50;97.20;;;;;;5011377;28;20030;-48
2023/05/15 01:15:32;;;;;;;10.30;9.30;;;16.50;97.20;;;;;;5011202;28;20101;-48
2023/05/15 01:18:18;;;;;;;11.57;10.45;;;16.50;97.50;;;;;;5010944;28;20502;-47
2023/05/15 01:21:24;;;;;;;10.70;9.70;;;16.30;97.50;;;;;;5012304;28;20022;-46
2023/05/15 01:24:28;;;;;;;10.57;9.57;;;16.10;98.50;;;;;;5017903;28;20018;-46
2023/05/15 01:27:36;;;;;;;11.20;10.20;;;16.10;99.00;;;;;;5017677;28;20037;-47
2023/05/15 01:30:28;;;;;;;11.38;10.18;;;16.10;99.10;;;;;;5020870;28;20026;-47
2023/05/15 01:33:28;;;;;;;11.70;10.50;;;16.00;99.20;;;;;;5016540;28;20034;-46
2023/05/15 01:36:22;;;;;;;11.20;10.18;;;16.00;99.50;;;;;;5013948;28;20072;-49
2023/05/15 01:39:10;;;;;;;10.93;9.80;;;15.80;99.70;;;;;;5014161;28;20097;-47
2023/05/15 01:42:05;;;;;;;11.45;10.15;;;15.70;99.90;;;;;;5015030;28;20164;-49
2023/05/15 01:44:54;;;;;;;11.88;10.68;;;15.50;99.90;;;;;;5015582;28;20079;-50
2023/05/15 01:47:45;;;;;;;11.38;10.27;;;15.50;99.90;;;;;;5015511;28;20083;-46
2023/05/15 01:50:33;;;;;;;13.60;10.75;;;15.40;99.90;;;;;;5015244;28;20034;-49
2023/05/15 01:53:19;;;;;;;10.85;9.77;;;15.40;99.90;;;;;;5015142;28;20463;-48
2023/05/15 01:56:08;;;;;;;10.88;9.77;;;15.40;99.90;;;;;;5014579;28;20112;-47
2023/05/15 01:58:54;;;;;;;11.90;10.40;;;15.50;99.90;;;;;;5014510;28;20069;-47
2023/05/15 02:01:41;;;;;;;11.35;10.10;;;15.50;99.90;;;;;;5015260;28;20457;-47
2023/05/15 02:04:27;;;;;;;11.88;10.77;;;15.30;99.90;;;;;;5015313;28;20033;-45
2023/05/15 02:07:15;;;;;;;11.65;10.35;;;15.30;99.90;;;;;;5015398;28;20121;-46
2023/05/15 02:10:02;;;;;;;14.52;10.88;;;15.20;99.90;;;;;;5014921;28;20030;-47
2023/05/15 02:12:49;;;;;;;11.75;10.55;;;15.20;99.90;;;;;;5015317;28;20033;-47
2023/05/15 02:15:36;;;;;;;11.32;10.23;;;15.20;99.90;;;;;;5013862;28;20040;-48
2023/05/15 02:18:22;;;;;;;11.57;10.48;;;15.20;99.90;;;;;;5013566;28;20030;-47
2023/05/15 02:21:08;;;;;;;11.07;10.07;;;15.20;99.90;;;;;;5013612;28;20021;-47
2023/05/15 02:23:54;;;;;;;12.65;11.38;;;15.10;99.90;;;;;;5015084;28;20034;-47
2023/05/15 02:27:02;;;;;;;12.95;11.75;;;14.80;99.90;;;;;;5013024;28;20469;-49
2023/05/15 02:30:03;;;;;;;13.27;11.98;;;14.50;99.90;;;;;;5014897;28;20026;-48
2023/05/15 02:32:53;;;;;;;13.40;12.10;;;14.40;99.90;;;;;;5015997;28;20030;-46
2023/05/15 02:36:11;;;;;;;13.13;11.73;;;14.30;99.90;;;;;;5024111;28;20497;-47
2023/05/15 02:38:58;;;;;;;14.45;12.07;;;14.20;99.90;;;;;;5001041;28;20458;-49
2023/05/15 02:41:45;;;;;;;12.80;11.57;;;14.20;99.90;;;;;;5000332;28;20027;-46
2023/05/15 02:44:34;;;;;;;14.40;12.27;;;14.30;99.90;;;;;;5000001;28;20058;-46
2023/05/15 02:47:22;;;;;;;13.88;12.57;;;14.30;99.90;;;;;;5004170;28;20026;-47
2023/05/15 02:50:09;;;;;;;13.40;12.10;;;14.40;99.90;;;;;;4997066;28;20554;-46
2023/05/15 02:53:09;;;;;;;12.80;11.60;;;14.50;99.90;;;;;;5014600;28;20065;-48
2023/05/15 02:55:54;;;;;;;13.13;11.82;;;14.60;99.90;;;;;;5014202;28;20105;-48
2023/05/15 02:58:41;;;;;;;14.35;12.82;;;14.60;99.90;;;;;;5011688;28;20048;-48
2023/05/15 03:01:27;;;;;;;12.88;11.55;;;14.60;99.90;;;;;;5013990;28;20030;-46
2023/05/15 03:04:15;;;;;;;13.32;11.90;;;14.60;99.90;;;;;;5013868;28;20022;-47
2023/05/15 03:07:01;;;;;;;12.95;11.55;;;14.60;99.90;;;;;;5013523;28;20026;-46
2023/05/15 03:09:47;;;;;;;13.05;11.70;;;14.50;99.90;;;;;;5012363;28;20061;-49
2023/05/15 03:12:34;;;;;;;13.32;11.88;;;14.50;99.90;;;;;;5013698;28;20494;-48
2023/05/15 03:15:20;;;;;;;13.60;12.30;;;14.20;99.90;;;;;;5013095;28;20033;-49
2023/05/15 03:18:06;;;;;;;14.77;11.68;;;14.00;99.90;;;;;;5013612;28;20478;-51
2023/05/15 03:20:52;;;;;;;14.20;12.77;;;14.10;99.90;;;;;;4993058;28;20464;-49
2023/05/15 03:23:38;;;;;;;14.05;12.73;;;14.10;99.90;;;;;;4993277;28;20057;-51
2023/05/15 03:26:24;;;;;;;13.93;12.40;;;14.10;99.90;;;;;;4994899;28;20030;-49
2023/05/15 03:29:10;;;;;;;13.63;12.23;;;14.10;99.90;;;;;;4993461;28;20063;-49
2023/05/15 03:31:56;;;;;;;13.85;12.45;;;14.20;99.90;;;;;;4994367;28;20035;-49
2023/05/15 03:34:42;;;;;;;13.32;12.13;;;14.30;99.90;;;;;;5011404;28;20038;-50
2023/05/15 03:37:28;;;;;;;13.10;11.90;;;14.30;99.90;;;;;;5013156;28;20108;-50
2023/05/15 03:40:14;;;;;;;13.80;12.55;;;14.00;99.90;;;;;;5013521;28;20117;-48
2023/05/15 03:43:00;;;;;;;15.20;13.55;;;14.00;99.90;;;;;;5013757;28;20026;-47
2023/05/15 03:45:46;;;;;;;15.63;11.77;;;14.00;99.90;;;;;;5013598;28;20026;-45
2023/05/15 03:48:32;;;;;;;14.50;12.75;;;14.00;99.90;;;;;;5013244;28;20064;-45
2023/05/15 03:51:18;;;;;;;16.42;13.90;;;14.00;99.90;;;;;;5012302;28;20029;-48
2023/05/15 03:54:04;;;;;;;14.85;13.38;;;13.90;99.90;;;;;;5012997;28;20049;-44
2023/05/15 03:56:50;;;;;;;17.30;14.27;;;13.80;99.90;;;;;;5013469;28;20391;-44
2023/05/15 03:59:36;;;;;;;15.10;13.70;;;13.80;99.90;;;;;;5015103;28;20041;-45
2023/05/15 04:02:22;;;;;;;14.23;12.93;;;13.80;99.90;;;;;;5015204;28;20030;-46
2023/05/15 04:05:08;;;;;;;15.35;13.85;;;13.80;99.90;;;;;;5019377;28;20072;-46
2023/05/15 04:07:54;;;;;;;14.13;12.82;;;13.90;99.90;;;;;;5018242;28;20030;-44
2023/05/15 04:10:40;;;;;;;14.63;13.23;;;13.80;99.90;;;;;;5013580;28;20030;-45
2023/05/15 04:13:26;;;;;;;14.18;12.77;;;13.80;99.90;;;;;;4993650;28;20463;-48
2023/05/15 04:16:12;;;;;;;19.83;13.25;;;13.90;99.90;;;;;;4994846;28;20030;-48
2023/05/15 04:18:58;;;;;;;14.68;13.32;;;13.90;99.90;;;;;;5012472;28;20044;-47
2023/05/15 04:21:44;;;;;;;15.30;13.27;;;14.00;99.90;;;;;;5012918;28;20029;-46
2023/05/15 04:24:30;;;;;;;14.07;12.68;;;14.00;99.90;;;;;;5013141;28;20029;-46
2023/05/15 04:27:16;;;;;;;15.40;13.77;;;14.10;99.90;;;;;;5011928;28;20033;-47
2023/05/15 04:30:04;;;;;;;13.73;12.35;;;14.20;99.90;;;;;;5012592;28;20398;-48
2023/05/15 04:32:50;;;;;;;14.05;12.75;;;14.30;99.90;;;;;;5011006;28;20045;-49
2023/05/15 04:35:36;;;;;;;15.82;14.23;;;14.20;99.90;;;;;;5012086;28;20041;-49
2023/05/15 04:38:22;;;;;;;15.00;13.50;;;13.90;99.90;;;;;;5012235;28;20124;-48
2023/05/15 04:41:08;;;;;;;16.50;14.85;;;13.60;99.90;;;;;;5012334;28;20563;-47
2023/05/15 04:43:55;;;;;;;17.52;15.82;;;13.50;99.90;;;;;;5012482;28;20053;-47
2023/05/15 04:46:41;;;;;;;15.25;13.80;;;13.50;99.90;;;;;;5011791;28;20037;-47
2023/05/15 04:49:27;;;;;;;15.48;13.88;;;13.50;99.90;;;;;;5012134;28;20038;-47
2023/05/15 04:52:13;;;;;;;22.88;15.85;;;13.40;99.90;;;;;;5012566;28;20053;-48
2023/05/15 04:54:59;;;;;;;16.15;14.45;;;13.40;99.90;;;;;;5012981;28;20030;-51
2023/05/15 04:57:46;;;;;;;20.25;14.15;;;13.50;99.90;;;;;;5012484;28;20407;-48
2023/05/15 05:00:32;;;;;;;17.55;15.77;;;13.50;99.90;;;;;;5010436;28;20030;-47
2023/05/15 05:03:18;;;;;;;16.05;14.40;;;13.50;99.90;;;;;;5012229;28;20022;-47
2023/05/15 05:06:04;;;;;;;16.05;14.32;;;13.40;99.90;;;;;;5011252;28;20041;-46
2023/05/15 05:08:50;;;;;;;15.50;14.00;;;13.40;99.90;;;;;;5012047;28;20109;-45
2023/05/15 05:11:38;;;;;;;15.00;13.50;;;13.40;99.90;;;;;;5011821;28;20034;-47
2023/05/15 05:14:26;;;;;;;15.02;13.52;;;13.50;99.90;;;;;;5012240;28;20038;-48
2023/05/15 05:17:18;;;;;;;16.27;13.90;;;13.50;99.90;;;;;;5012313;28;20098;-48
2023/05/15 05:20:07;;;;;;;16.58;14.88;;;13.50;99.90;;;;;;5012439;28;20030;-51
2023/05/15 05:22:53;;;;;;;14.77;13.38;;;13.30;99.90;;;;;;5011321;28;20110;-46
2023/05/15 05:25:39;;;;;;;15.40;13.82;;;13.50;99.90;;;;;;5012214;28;20030;-50
2023/05/15 05:28:26;;;;;;;16.85;14.02;;;13.60;99.90;;;;;;5011903;28;20179;-47
2023/05/15 05:31:11;;;;;;;15.32;13.70;;;13.70;99.90;;;;;;5011935;28;20075;-47
2023/05/15 05:33:57;;;;;;;14.98;13.48;;;13.90;99.90;;;;;;5011821;28;20038;-47
2023/05/15 05:36:47;;;;;;;15.50;13.90;;;14.10;99.90;;;;;;5012174;28;20036;-48
2023/05/15 05:39:33;;;;;;;16.52;14.93;;;14.20;99.90;;;;;;5011672;28;20117;-46
2023/05/15 05:42:19;;;;;;;17.58;14.50;;;14.40;99.90;;;;;;5011400;28;20076;-48
2023/05/15 05:45:06;;;;;;;17.75;14.32;;;14.40;99.90;;;;;;5011841;28;20617;-48
2023/05/15 05:47:55;;;;;;;16.67;14.77;;;14.40;99.90;;;;;;5011791;28;20091;-49
2023/05/15 05:50:41;;;;;;;16.95;14.00;;;14.60;99.90;;;;;;5012476;28;20117;-49
2023/05/15 05:53:27;;;;;;;15.82;13.80;;;14.70;99.90;;;;;;5012273;28;20056;-47
2023/05/15 05:56:14;;;;;;;15.60;14.00;;;14.60;99.90;;;;;;5012139;28;20044;-48
2023/05/15 05:59:00;;;;;;;16.40;14.63;;;14.60;99.90;;;;;;5012880;28;20034;-48
2023/05/15 06:01:48;;;;;;;15.05;13.73;;;14.70;99.90;;;;;;5011003;28;20418;-47
2023/05/15 06:04:34;;;;;;;14.52;12.73;;;14.70;99.90;;;;;;5010731;28;20022;-47
2023/05/15 06:07:20;;;;;;;13.70;12.43;;;14.80;99.90;;;;;;5010335;28;20475;-47
2023/05/15 06:10:08;;;;;;;14.82;12.95;;;15.00;99.90;;;;;;5011617;28;20092;-48
2023/05/15 06:12:54;;;;;;;14.00;12.55;;;15.20;99.70;;;;;;5011870;28;20117;-48
2023/05/15 06:15:41;;;;;;;14.93;13.02;;;15.20;99.70;;;;;;5011026;28;20509;-50
2023/05/15 06:18:27;;;;;;;14.55;13.10;;;15.20;99.60;;;;;;5014970;28;20449;-48
2023/05/15 06:21:13;;;;;;;17.40;14.50;;;15.10;99.50;;;;;;5015432;28;20044;-47
2023/05/15 06:23:59;;;;;;;13.32;11.90;;;15.20;99.30;;;;;;5015193;28;20026;-48
2023/05/15 06:26:45;;;;;;;13.15;11.95;;;15.30;99.10;;;;;;5013085;28;20033;-46
2023/05/15 06:29:31;;;;;;;13.23;11.93;;;15.50;99.20;;;;;;5013855;28;20026;-47
2023/05/15 06:32:17;;;;;;;11.60;10.35;;;15.70;98.60;;;;;;5014675;28;20042;-48
2023/05/15 06:35:03;;;;;;;12.55;11.35;;;15.70;97.90;;;;;;5014962;28;20034;-47
2023/05/15 06:37:50;;;;;;;11.10;10.07;;;15.90;97.60;;;;;;5020649;28;20088;-48
2023/05/15 06:40:36;;;;;;;11.88;10.48;;;15.90;97.60;;;;;;5021655;28;20038;-47
2023/05/15 06:43:22;;;;;;;11.75;10.55;;;16.00;97.60;;;;;;5019682;28;20045;-48
2023/05/15 06:46:08;;;;;;;12.63;9.93;;;16.20;97.20;;;;;;5015699;28;20034;-47
2023/05/15 06:48:54;;;;;;;15.45;10.48;;;16.30;96.80;;;;;;5015331;28;20060;-46
2023/05/15 06:51:40;;;;;;;11.10;10.00;;;16.40;96.50;;;;;;5014838;28;20034;-45
2023/05/15 06:54:26;;;;;;;13.93;10.40;;;16.40;96.20;;;;;;5014407;28;20064;-51
2023/05/15 06:57:12;;;;;;;14.00;10.27;;;16.50;96.10;;;;;;5013781;28;20127;-47
2023/05/15 06:59:58;;;;;;;11.73;9.75;;;16.60;96.10;;;;;;4994435;28;20042;-50
2023/05/15 07:02:44;;;;;;;13.80;10.60;;;16.40;96.60;;;;;;5016222;28;20116;-48
2023/05/15 07:05:30;;;;;;;12.32;10.65;;;16.40;96.30;;;;;;5028713;28;20030;-46
2023/05/15 07:08:16;;;;;;;12.48;11.18;;;16.30;96.30;;;;;;5013642;28;20250;-46
2023/05/15 07:11:02;;;;;;;12.23;11.10;;;16.20;96.70;;;;;;5015185;28;20410;-47
2023/05/15 07:13:48;;;;;;;12.38;11.00;;;16.30;96.80;;;;;;5013337;28;20084;-48
2023/05/15 07:16:34;;;;;;;11.65;10.48;;;16.50;97.00;;;;;;5012966;28;20041;-46
2023/05/15 07:19:20;;;;;;;12.20;10.55;;;16.40;96.80;;;;;;5014788;28;20038;-46
2023/05/15 07:22:06;;;;;;;12.35;11.02;;;16.50;97.10;;;;;;5015035;28;20056;-48
2023/05/15 07:24:52;;;;;;;12.77;11.55;;;16.50;97.10;;;;;;5014601;28;20068;-48
2023/05/15 07:27:38;;;;;;;15.15;11.68;;;16.70;96.70;;;;;;5014665;28;20041;-46
2023/05/15 07:30:24;;;;;;;13.18;11.70;;;16.80;97.00;;;;;;5013871;28;20104;-49
2023/05/15 07:33:10;;;;;;;13.27;11.45;;;16.90;96.80;;;;;;5012686;28;20509;-47
2023/05/15 07:35:56;;;;;;;15.60;10.57;;;17.00;96.50;;;;;;5013324;28;20486;-47
2023/05/15 07:38:42;;;;;;;13.60;11.02;;;17.10;96.80;;;;;;5013133;28;20069;-47
2023/05/15 07:41:29;;;;;;;12.20;10.57;;;17.10;96.00;;;;;;5013372;28;20030;-48
2023/05/15 07:44:15;;;;;;;13.10;10.30;;;17.30;96.20;;;;;;5012983;28;20458;-47
2023/05/15 07:47:01;;;;;;;13.75;10.93;;;17.40;96.20;;;;;;4994388;28;20634;-47
2023/05/15 07:49:47;;;;;;;12.00;10.57;;;17.50;95.90;;;;;;4993649;28;20038;-49
2023/05/15 07:52:33;;;;;;;11.55;10.02;;;17.50;95.70;;;;;;4994436;28;20096;-47
2023/05/15 07:55:19;;;;;;;13.98;9.93;;;17.70;95.30;;;;;;4994926;28;20026;-48
2023/05/15 07:58:06;;;;;;;11.30;10.20;;;17.90;95.20;;;;;;4993017;28;20045;-46
2023/05/15 08:00:53;;;;;;;12.13;10.35;;;18.00;94.80;;;;;;4998760;28;20026;-49
2023/05/15 08:03:38;;;;;;;11.43;10.02;;;17.90;94.30;;;;;;5017723;28;20033;-47
2023/05/15 08:06:25;;;;;;;9.80;8.80;;;17.90;94.10;;;;;;5020561;28;20052;-48
2023/05/15 08:09:11;;;;;;;10.90;9.00;;;18.00;94.20;;;;;;5016292;28;20026;-48
2023/05/15 08:12:19;;;;;;;12.20;9.93;;;18.10;93.50;;;;;;5012680;28;20034;-49
2023/05/15 08:15:06;;;;;;;13.38;10.20;;;18.20;93.20;;;;;;5013020;28;20577;-47
2023/05/15 08:17:52;;;;;;;14.10;9.82;;;18.30;92.60;;;;;;5012856;28;20037;-48
2023/05/15 08:20:38;;;;;;;10.98;9.73;;;18.30;92.60;;;;;;4998194;28;20034;-49
2023/05/15 08:23:25;;;;;;;13.32;9.50;;;18.40;92.40;;;;;;4985624;28;20033;-46
2023/05/15 08:26:14;;;;;;;10.25;9.25;;;18.20;93.10;;;;;;5013169;28;20053;-45
2023/05/15 08:29:00;;;;;;;13.10;9.23;;;18.30;92.60;;;;;;4998178;28;20030;-48
2023/05/15 08:31:46;;;;;;;11.13;9.02;;;18.50;92.40;;;;;;5012962;28;20096;-49
2023/05/15 08:34:33;;;;;;;11.77;8.75;;;18.70;92.30;;;;;;5011585;28;20065;-51
2023/05/15 08:37:19;;;;;;;10.38;8.18;;;18.80;91.60;;;;;;5011614;28;20030;-48
2023/05/15 08:40:09;;;;;;;9.27;8.38;;;18.70;91.70;;;;;;4999955;28;20039;-46
2023/05/15 08:43:02;;;;;;;9.38;8.10;;;18.60;91.00;;;;;;5005544;28;20032;-51
2023/05/15 08:45:49;;;;;;;11.13;8.63;;;18.60;91.70;;;;;;5004449;28;20502;-51
2023/05/15 08:48:38;;;;;;;9.73;8.45;;;18.80;91.70;;;;;;5015670;28;20022;-47
2023/05/15 08:51:24;;;;;;;10.85;8.02;;;18.90;90.80;;;;;;5017103;28;20104;-47
2023/05/15 08:54:10;;;;;;;9.48;7.75;;;19.00;90.20;;;;;;5011829;28;20030;-46
2023/05/15 08:56:57;;;;;;;7.63;6.82;;;18.90;90.00;;;;;;5012289;28;20034;-47
2023/05/15 08:59:43;;;;;;;8.63;7.28;;;19.10;89.40;;;;;;5011464;28;20033;-46
2023/05/15 09:02:30;;;;;;;8.07;6.80;;;19.20;89.10;;;;;;5010437;28;20033;-47
2023/05/15 09:05:16;;;;;;;8.23;7.10;;;18.90;87.60;;;;;;5010810;28;20022;-49
2023/05/15 09:08:04;;;;;;;9.27;7.03;;;19.00;86.50;;;;;;5010255;28;20080;-47
2023/05/15 09:10:53;;;;;;;8.00;7.30;;;19.10;86.70;;;;;;5009887;28;20084;-51
2023/05/15 09:13:39;;;;;;;8.93;6.60;;;19.20;86.70;;;;;;5022041;28;20018;-46
2023/05/15 09:16:26;;;;;;;7.57;6.85;;;19.10;84.80;;;;;;5011498;28;20038;-46
2023/05/15 09:19:14;;;;;;;7.70;6.88;;;19.10;85.80;;;;;;5007597;28;20026;-48
2023/05/15 09:22:23;;;;;;;8.63;7.43;;;19.30;86.40;;;;;;5011329;28;20030;-49
2023/05/15 09:25:09;;;;;;;8.35;6.70;;;19.50;85.30;;;;;;5011150;28;20026;-54
2023/05/15 09:27:55;;;;;;;7.20;6.50;;;19.50;84.40;;;;;;5011956;28;20371;-55
2023/05/15 09:30:41;;;;;;;10.80;6.28;;;19.70;82.60;;;;;;5011628;28;20112;-55
2023/05/15 09:33:45;;;;;;;9.23;6.75;;;19.40;83.20;;;;;;5011400;28;20030;-51
2023/05/15 09:36:32;;;;;;;9.52;6.68;;;19.60;83.60;;;;;;5011519;28;20033;-50
2023/05/15 09:39:21;;;;;;;9.93;6.80;;;19.60;82.90;;;;;;5010387;28;20029;-49
2023/05/15 09:42:14;;;;;;;7.95;6.63;;;19.60;83.00;;;;;;5011174;28;20022;-51
2023/05/15 09:45:01;;;;;;;7.53;6.82;;;19.70;84.00;;;;;;5010220;28;20049;-55
2023/05/15 09:47:47;;;;;;;9.13;7.18;;;20.00;82.40;;;;;;4991254;28;20081;-46
2023/05/15 09:50:35;;;;;;;8.20;6.75;;;20.00;81.20;;;;;;4992254;28;20037;-53
2023/05/15 09:53:22;;;;;;;9.30;7.40;;;19.70;81.50;;;;;;5004220;28;20546;-47
2023/05/15 09:56:12;;;;;;;8.68;7.18;;;19.80;80.60;;;;;;5015249;28;20176;-49
2023/05/15 09:58:58;;;;;;;8.35;7.60;;;19.90;79.70;;;;;;5014179;28;20088;-49
2023/05/15 10:01:47;;;;;;;11.73;7.45;;;19.70;80.90;;;;;;5015470;28;20120;-50
2023/05/15 10:04:39;;;;;;;7.90;7.10;;;19.80;81.50;;;;;;5015377;28;20502;-49
2023/05/15 10:07:33;;;;;;;9.30;7.25;;;19.90;81.00;;;;;;5013699;28;20030;-48
2023/05/15 10:10:19;;;;;;;8.32;6.97;;;19.80;79.60;;;;;;5014628;28;20442;-46
2023/05/15 10:13:07;;;;;;;9.85;8.23;;;19.80;82.60;;;;;;5015895;28;20018;-47
2023/05/15 10:15:54;;;;;;;8.75;7.05;;;19.80;81.60;;;;;;5015637;28;20084;-51
2023/05/15 10:18:40;;;;;;;11.60;8.80;;;20.20;81.80;;;;;;5015351;28;20026;-47
2023/05/15 10:21:29;;;;;;;8.50;7.13;;;20.30;80.70;;;;;;5014952;28;20048;-50
2023/05/15 10:24:19;;;;;;;8.77;7.60;;;20.00;81.80;;;;;;5014611;28;20109;-50
2023/05/15 10:27:06;;;;;;;11.60;7.88;;;20.00;81.90;;;;;;5013308;28;20037;-51
2023/05/15 10:29:53;;;;;;;10.32;7.80;;;20.00;80.50;;;;;;4995147;28;20034;-53
2023/05/15 10:32:40;;;;;;;8.95;8.10;;;19.80;81.50;;;;;;4996355;28;20039;-48
2023/05/15 10:35:27;;;;;;;10.63;8.98;;;20.10;81.70;;;;;;5008832;28;20046;-50
2023/05/15 10:38:14;;;;;;;10.73;8.50;;;20.30;82.90;;;;;;5014402;28;20109;-46
2023/05/15 10:41:03;;;;;;;15.05;8.38;;;20.60;83.70;;;;;;5013567;28;20029;-52
2023/05/15 10:43:50;;;;;;;9.68;8.38;;;20.80;82.80;;;;;;5014613;28;20026;-48
2023/05/15 10:46:36;;;;;;;13.02;8.52;;;20.60;80.80;;;;;;5014115;28;20072;-47
2023/05/15 10:49:22;;;;;;;15.50;8.80;;;20.50;80.80;;;;;;5013880;28;20486;-45
2023/05/15 10:52:08;;;;;;;13.00;8.45;;;20.40;83.00;;;;;;5013871;28;20494;-46
2023/05/15 10:54:55;;;;;;;9.52;8.18;;;20.30;83.30;;;;;;5014758;28;20040;-46
2023/05/15 10:57:44;;;;;;;9.68;7.35;;;20.10;83.90;;;;;;5013390;28;20088;-50
2023/05/15 11:00:43;;;;;;;10.45;7.45;;;20.30;83.80;;;;;;5014113;28;20038;-48
2023/05/15 11:03:36;;;;;;;11.82;8.00;;;20.30;82.40;;;;;;4999457;28;20050;-47
2023/05/15 11:06:29;;;;;;;11.75;7.72;;;20.10;82.90;;;;;;5015127;28;20068;-47
2023/05/15 11:09:21;;;;;;;10.15;7.78;;;19.90;83.40;;;;;;5015670;28;20034;-47
2023/05/15 11:12:10;;;;;;;8.43;7.28;;;19.70;83.70;;;;;;5015236;28;20026;-46
2023/05/15 11:14:56;;;;;;;8.77;7.57;;;19.80;83.60;;;;;;5009444;28;20050;-49
2023/05/15 11:18:04;;;;;;;11.93;7.10;;;19.70;82.80;;;;;;4995553;28;20026;-50
2023/05/15 11:20:50;;;;;;;7.35;6.65;;;19.90;82.80;;;;;;4994050;28;20030;-47
2023/05/15 11:23:41;;;;;;;12.52;7.60;;;19.90;81.90;;;;;;5010131;28;20065;-47
2023/05/15 11:26:34;;;;;;;9.10;7.13;;;20.00;82.30;;;;;;5013241;28;20084;-48
2023/05/15 11:29:23;;;;;;;12.43;7.18;;;19.90;82.30;;;;;;5011720;28;20037;-49
2023/05/15 11:32:56;;;;;;;9.65;6.97;;;19.80;81.90;;;;;;4992431;28;20476;-49
2023/05/15 11:35:45;;;;;;;8.25;6.65;;;19.80;81.80;;;;;;5015152;28;20485;-52
2023/05/15 11:38:38;;;;;;;9.68;6.78;;;19.70;80.40;;;;;;5034600;28;20089;-48
2023/05/15 11:41:30;;;;;;;8.40;7.28;;;19.70;80.40;;;;;;5035250;28;20021;-47
2023/05/15 11:44:23;;;;;;;10.38;6.93;;;20.00;81.00;;;;;;4994997;28;20038;-49
2023/05/15 11:47:10;;;;;;;9.30;6.80;;;20.10;80.90;;;;;;4994297;28;20077;-49
2023/05/15 11:50:15;;;;;;;9.65;7.38;;;20.30;80.20;;;;;;5012472;28;20490;-54
2023/05/15 11:53:09;;;;;;;9.55;6.93;;;20.30;77.70;;;;;;5005760;28;20018;-50
2023/05/15 11:56:02;;;;;;;9.23;6.75;;;20.30;78.80;;;;;;5015235;28;20037;-51
2023/05/15 11:58:54;;;;;;;10.88;7.97;;;20.50;79.00;;;;;;5012557;28;20057;-49
2023/05/15 12:01:41;;;;;;;8.30;7.45;;;20.50;79.60;;;;;;5011500;28;20026;-45
2023/05/15 12:04:27;;;;;;;10.15;7.35;;;20.40;80.40;;;;;;5031321;28;20030;-45
2023/05/15 12:07:13;;;;;;;8.93;7.72;;;20.50;80.10;;;;;;5039507;28;20072;-47
2023/05/15 12:10:00;;;;;;;8.80;7.68;;;20.60;79.20;;;;;;5013743;28;20406;-44
2023/05/15 12:12:46;;;;;;;10.80;8.02;;;20.70;79.00;;;;;;5012843;28;20038;-50
2023/05/15 12:15:36;;;;;;;9.27;7.88;;;20.90;78.90;;;;;;5015163;28;20022;-52
2023/05/15 12:18:22;;;;;;;10.82;8.68;;;21.10;79.00;;;;;;5013778;28;20034;-48
2023/05/15 12:21:12;;;;;;;8.38;7.50;;;21.30;79.20;;;;;;5014772;28;20561;-47
2023/05/15 12:23:58;;;;;;;12.30;7.22;;;21.50;79.10;;;;;;5013609;28;20090;-46
2023/05/15 12:26:45;;;;;;;10.45;7.40;;;21.10;79.10;;;;;;5000392;28;20026;-46
2023/05/15 12:29:36;;;;;;;8.68;7.57;;;20.90;78.80;;;;;;4993485;28;20120;-46
2023/05/15 12:32:22;;;;;;;10.10;7.25;;;20.90;78.00;;;;;;4994375;28;20026;-48
2023/05/15 12:35:12;;;;;;;11.23;8.07;;;20.70;78.30;;;;;;4994884;28;20466;-46
2023/05/15 12:37:58;;;;;;;10.57;7.45;;;21.00;78.20;;;;;;4993106;28;20045;-49
2023/05/15 12:40:45;;;;;;;9.90;7.75;;;20.90;78.30;;;;;;4991520;28;20035;-49
2023/05/15 12:43:32;;;;;;;8.95;7.53;;;21.00;79.40;;;;;;4993115;28;20053;-51
2023/05/15 12:46:22;;;;;;;8.20;7.35;;;21.00;78.00;;;;;;4991727;28;20065;-51
2023/05/15 12:49:09;;;;;;;15.95;7.30;;;21.20;78.50;;;;;;4992155;28;20030;-50
2023/05/15 12:51:55;;;;;;;8.18;7.38;;;21.30;78.20;;;;;;4992046;28;20058;-50
2023/05/15 12:54:43;;;;;;;12.52;7.80;;;21.30;77.80;;;;;;4992295;28;20031;-53
2023/05/15 12:57:29;;;;;;;11.45;6.97;;;21.10;78.40;;;;;;4994590;28;20113;-53
2023/05/15 13:00:16;;;;;;;8.98;6.40;;;20.80;81.30;;;;;;4994876;28;20081;-55
2023/05/15 13:03:02;;;;;;;10.43;6.57;;;19.70;83.00;;;;;;4991874;28;20022;-50
2023/05/15 13:05:51;;;;;;;9.43;6.40;;;19.10;85.70;;;;;;4992003;28;20030;-50
2023/05/15 13:08:41;;;;;;;7.10;5.88;;;18.60;88.90;;;;;;4991570;28;20080;-48
2023/05/15 13:11:30;;;;;;;8.73;6.28;;;18.10;90.40;;;;;;4991822;28;20070;-48
2023/05/15 13:14:16;;;;;;;9.05;6.68;;;17.70;91.40;;;;;;4991693;28;20044;-49
2023/05/15 13:17:03;;;;;;;8.23;7.18;;;17.10;93.50;;;;;;4991419;28;20385;-50
2023/05/15 13:19:49;;;;;;;6.43;5.78;;;16.70;94.20;;;;;;4991798;28;20573;-49
2023/05/15 13:22:35;;;;;;;8.68;6.53;;;16.40;94.30;;;;;;4990766;28;20448;-49
2023/05/15 13:25:21;;;;;;;6.63;5.93;;;16.20;94.50;;;;;;5003237;28;20026;-50
2023/05/15 13:28:09;;;;;;;7.35;6.65;;;16.30;94.00;;;;;;5013299;28;20064;-51
2023/05/15 13:30:55;;;;;;;6.25;5.65;;;16.60;94.00;;;;;;5014924;28;20026;-53
2023/05/15 13:33:41;;;;;;;6.65;5.47;;;16.80;94.90;;;;;;5013521;28;20067;-55
2023/05/15 13:36:27;;;;;;;6.40;5.25;;;17.10;95.50;;;;;;5014587;28;20033;-51
2023/05/15 13:39:13;;;;;;;6.88;5.78;;;17.40;95.20;;;;;;5010022;28;20040;-53
2023/05/15 13:41:59;;;;;;;5.93;4.85;;;17.60;95.10;;;;;;5010411;28;20014;-50
2023/05/15 13:44:45;;;;;;;5.55;5.00;;;17.90;94.90;;;;;;5015819;28;20030;-53
2023/05/15 13:47:31;;;;;;;5.07;4.55;;;18.20;94.40;;;;;;5018088;28;20062;-48
2023/05/15 13:50:17;;;;;;;6.13;4.70;;;18.60;94.40;;;;;;5016214;28;20069;-47
2023/05/15 13:53:03;;;;;;;7.43;5.40;;;18.90;93.30;;;;;;5013974;28;20084;-48
2023/05/15 13:55:49;;;;;;;7.63;4.85;;;19.20;93.20;;;;;;5013993;28;20037;-46
2023/05/15 13:58:35;;;;;;;6.93;5.07;;;19.50;93.30;;;;;;5013622;28;20047;-47
2023/05/15 14:01:21;;;;;;;6.43;5.40;;;19.70;92.90;;;;;;5012945;28;20037;-49
2023/05/15 14:04:07;;;;;;;6.25;5.50;;;20.00;90.40;;;;;;5013684;28;20022;-51
2023/05/15 14:06:53;;;;;;;6.32;5.45;;;20.30;91.00;;;;;;5007524;28;20109;-47
2023/05/15 14:09:39;;;;;;;6.05;5.32;;;20.50;90.10;;;;;;5018341;28;20117;-48
2023/05/15 14:12:25;;;;;;;6.18;5.63;;;20.60;88.80;;;;;;5011208;28;20178;-47
2023/05/15 14:15:11;;;;;;;7.15;6.03;;;20.70;87.70;;;;;;5014065;28;20168;-48
2023/05/15 14:17:57;;;;;;;7.85;5.97;;;20.60;90.20;;;;;;5013018;28;20061;-48
2023/05/15 14:20:43;;;;;;;6.65;5.95;;;21.00;90.80;;;;;;5013046;28;20034;-46